createdAt,value
2022-08-05T00:01:36.184Z,2.00
2022-08-05T00:04:16.719Z,1.70
2022-08-05T00:06:45.392Z,1.88
2022-08-05T00:09:19.356Z,2.13
2022-08-05T00:11:49.133Z,1.60
2022-08-05T00:14:17.751Z,1.92
2022-08-05T00:16:53.641Z,2.00
2022-08-05T00:19:33.698Z,1.80
2022-08-05T00:22:11.913Z,1.90
2022-08-05T00:24:42.205Z,1.67
2022-08-05T00:27:13.899Z,1.67
2022-08-05T00:29:58.240Z,1.80
2022-08-05T00:32:28.203Z,2.30
2022-08-05T00:35:06.575Z,1.88
2022-08-05T00:37:51.036Z,2.10
2022-08-05T00:40:27.423Z,2.00
2022-08-05T00:43:00.903Z,2.10
2022-08-05T00:45:42.977Z,1.83
2022-08-05T00:48:12.400Z,2.22
2022-08-05T00:50:41.413Z,1.70
2022-08-05T00:53:45.292Z,1.90
2022-08-05T00:56:00.257Z,1.98
2022-08-05T00:58:28.045Z,2.10
2022-08-05T01:00:56.344Z,1.88
2022-08-05T01:03:33.283Z,1.70
2022-08-05T01:06:01.758Z,1.70
2022-08-05T01:08:42.737Z,1.60
2022-08-05T01:11:13.847Z,1.95
2022-08-05T01:14:01.086Z,1.80
2022-08-05T01:16:28.676Z,1.80
2022-08-05T01:19:00.781Z,1.60
2022-08-05T01:22:04.045Z,1.70
2022-08-05T01:24:50.739Z,1.70
2022-08-05T01:27:19.385Z,1.58
2022-08-05T01:29:51.806Z,1.48
2022-08-05T01:32:22.041Z,1.38
2022-08-05T01:34:51.764Z,1.60
2022-08-05T01:37:25.105Z,1.30
2022-08-05T01:39:54.976Z,1.52
2022-08-05T01:42:27.953Z,1.45
2022-08-05T01:44:59.131Z,1.33
2022-08-05T01:47:39.227Z,1.30
2022-08-05T01:50:15.127Z,1.38
2022-08-05T01:52:44.711Z,1.50
2022-08-05T01:55:18.563Z,1.55
2022-08-05T01:58:10.723Z,1.10
2022-08-05T02:00:37.662Z,1.25
2022-08-05T02:03:24.438Z,1.20
2022-08-05T02:05:59.661Z,1.20
2022-08-05T02:08:31.040Z,1.50
2022-08-05T02:11:05.981Z,1.10
2022-08-05T02:13:36.430Z,1.10
2022-08-05T02:16:22.340Z,1.27
2022-08-05T02:18:55.216Z,1.20
2022-08-05T02:21:26.555Z,1.20
2022-08-05T02:23:57.223Z,1.13
2022-08-05T02:26:28.109Z,1.42
2022-08-05T02:28:58.101Z,1.60
2022-08-05T02:31:28.355Z,1.33
2022-08-05T02:33:58.868Z,1.52
2022-08-05T02:36:31.178Z,1.63
2022-08-05T02:39:00.845Z,1.50
2022-08-05T02:41:43.067Z,1.30
2022-08-05T02:44:18.171Z,1.60
2022-08-05T02:46:59.694Z,1.52
2022-08-05T02:49:36.049Z,1.73
2022-08-05T02:52:09.882Z,1.70
2022-08-05T02:54:41.238Z,1.75
2022-08-05T02:58:10.504Z,1.60
2022-08-05T02:59:59.415Z,1.70
2022-08-05T03:02:29.676Z,1.60
2022-08-05T03:04:58.702Z,1.70
2022-08-05T03:07:59.148Z,1.50
2022-08-05T03:10:24.353Z,1.52
2022-08-05T03:12:53.263Z,1.15
2022-08-05T03:15:23.627Z,1.50
2022-08-05T03:17:57.604Z,1.30
2022-08-05T03:20:25.613Z,1.70
2022-08-05T03:22:57.232Z,1.50
2022-08-05T03:26:02.663Z,1.55
2022-08-05T03:28:14.522Z,1.33
2022-08-05T03:30:47.366Z,1.20
2022-08-05T03:33:15.038Z,1.30
2022-08-05T03:35:42.772Z,1.35
2022-08-05T03:38:14.566Z,1.23
2022-08-05T03:40:45.434Z,1.20
2022-08-05T03:44:08.433Z,1.40
2022-08-05T03:46:03.817Z,0.98
2022-08-05T03:48:35.637Z,1.20
2022-08-05T03:52:38.562Z,1.30
2022-08-05T03:56:05.629Z,1.00
2022-08-05T03:57:00.651Z,1.27
2022-08-05T03:59:46.494Z,1.35
2022-08-05T04:02:17.613Z,1.20
2022-08-05T04:05:05.153Z,1.30
2022-08-05T04:07:53.033Z,1.52
2022-08-05T04:10:27.720Z,1.80
2022-08-05T04:12:56.148Z,1.48
2022-08-05T04:15:27.918Z,1.40
2022-08-05T04:18:03.466Z,1.40
2022-08-05T04:20:34.702Z,1.60
2022-08-05T04:23:02.469Z,1.58
2022-08-05T04:25:56.789Z,1.48
2022-08-05T04:28:19.341Z,1.35
2022-08-05T04:30:47.175Z,1.60
2022-08-05T04:33:16.104Z,1.40
2022-08-05T04:36:16.212Z,1.30
2022-08-05T04:38:39.652Z,1.52
2022-08-05T04:41:10.004Z,1.65
2022-08-05T04:43:40.659Z,1.55
2022-08-05T04:46:28.258Z,1.50
2022-08-05T04:48:57.975Z,1.60
2022-08-05T04:51:30.617Z,1.85
2022-08-05T04:53:58.328Z,1.38
2022-08-05T04:56:34.864Z,1.85
2022-08-05T04:59:21.770Z,1.70
2022-08-05T05:02:07.900Z,1.70
2022-08-05T05:04:47.706Z,1.95
2022-08-05T05:07:18.305Z,1.48
2022-08-05T05:09:52.148Z,1.88
2022-08-05T05:12:22.262Z,1.80
2022-08-05T05:14:50.768Z,1.75
2022-08-05T05:17:23.833Z,1.70
2022-08-05T05:19:56.576Z,1.60
2022-08-05T05:22:26.308Z,1.85
2022-08-05T05:24:57.034Z,1.63
2022-08-05T05:27:38.434Z,1.77
2022-08-05T05:30:15.650Z,1.60
2022-08-05T05:33:00.956Z,1.38
2022-08-05T05:35:38.100Z,1.70
2022-08-05T05:38:13.593Z,1.58
2022-08-05T05:40:49.965Z,1.60
2022-08-05T05:43:54.484Z,1.52
2022-08-05T05:46:15.784Z,1.20
2022-08-05T05:48:44.700Z,1.45
2022-08-05T05:51:18.625Z,1.52
2022-08-05T05:53:57.737Z,1.40
2022-08-05T05:56:32.750Z,1.42
2022-08-05T05:59:06.725Z,1.42
2022-08-05T06:01:37.641Z,1.58
2022-08-05T06:04:14.577Z,1.48
2022-08-05T06:06:43.313Z,1.50
2022-08-05T06:09:17.495Z,1.15
2022-08-05T06:12:01.976Z,1.20
2022-08-05T06:14:31.192Z,1.23
2022-08-05T06:16:59.162Z,1.30
2022-08-05T06:19:34.792Z,1.10
2022-08-05T06:22:04.364Z,1.10
2022-08-05T06:24:34.725Z,1.13
2022-08-05T06:27:04.009Z,1.17
2022-08-05T06:29:46.688Z,0.85
2022-08-05T06:32:25.428Z,1.10
2022-08-05T06:34:57.881Z,1.02
2022-08-05T06:37:55.536Z,1.02
2022-08-05T06:40:18.249Z,1.02
2022-08-05T06:42:52.637Z,1.00
2022-08-05T06:46:02.915Z,1.00
2022-08-05T06:48:44.093Z,1.00
2022-08-05T06:50:57.208Z,1.00
2022-08-05T06:53:27.791Z,0.70
2022-08-05T06:56:00.035Z,1.10
2022-08-05T06:58:35.323Z,0.85
2022-08-05T07:01:06.410Z,0.90
2022-08-05T07:03:34.428Z,0.90
2022-08-05T07:06:05.980Z,1.13
2022-08-05T07:08:47.928Z,0.65
2022-08-05T07:11:22.387Z,0.90
2022-08-05T07:14:19.966Z,0.70
2022-08-05T07:18:02.050Z,0.70
2022-08-05T07:22:30.085Z,1.10
2022-08-05T07:24:59.406Z,0.80
2022-08-05T07:27:27.766Z,0.98
2022-08-05T07:30:27.214Z,0.70
2022-08-05T07:32:58.181Z,0.93
2022-08-05T07:36:02.518Z,0.60
2022-08-05T07:38:32.250Z,0.80
2022-08-05T07:42:07.743Z,0.88
2022-08-05T07:43:59.268Z,0.77
2022-08-05T07:46:27.949Z,1.00
2022-08-05T07:49:02.503Z,0.80
2022-08-05T07:51:48.734Z,0.82
2022-08-05T07:54:31.556Z,1.17
2022-08-05T07:57:22.580Z,0.88
2022-08-05T07:59:50.321Z,0.77
2022-08-05T08:02:18.410Z,0.60
2022-08-05T08:04:47.534Z,0.70
2022-08-05T08:07:15.885Z,0.70
2022-08-05T08:09:43.595Z,1.08
2022-08-05T08:12:35.057Z,0.70
2022-08-05T08:15:02.445Z,0.80
2022-08-05T08:17:31.290Z,1.00
2022-08-05T08:20:44.087Z,0.68
2022-08-05T08:22:59.072Z,0.80
2022-08-05T08:26:00.485Z,0.90
2022-08-05T08:28:35.612Z,1.00
2022-08-05T08:31:06.379Z,1.10
2022-08-05T08:33:38.079Z,0.60
2022-08-05T08:38:57.128Z,0.70
2022-08-05T08:41:52.563Z,0.65
2022-08-05T08:45:18.522Z,0.60
2022-08-05T08:47:21.806Z,0.50
2022-08-05T08:50:23.236Z,0.55
2022-08-05T08:52:51.838Z,0.70
2022-08-05T08:55:32.041Z,0.63
2022-08-05T08:58:13.171Z,0.60
2022-08-05T09:00:42.361Z,1.00
2022-08-05T09:03:11.634Z,0.80
2022-08-05T09:06:08.663Z,0.75
2022-08-05T09:08:27.454Z,0.88
2022-08-05T09:10:58.433Z,0.65
2022-08-05T09:13:31.688Z,0.80
2022-08-05T09:16:14.504Z,0.80
2022-08-05T09:18:44.512Z,0.70
2022-08-05T09:21:20.737Z,0.60
2022-08-05T09:24:10.426Z,0.60
2022-08-05T09:26:37.835Z,0.75
2022-08-05T09:29:08.786Z,0.60
2022-08-05T09:32:41.064Z,0.52
2022-08-05T09:34:23.633Z,0.60
2022-08-05T09:36:56.002Z,0.80
2022-08-05T09:39:45.799Z,0.60
2022-08-05T09:42:24.376Z,0.60
2022-08-05T09:44:57.437Z,0.60
2022-08-05T09:47:48.119Z,0.57
2022-08-05T09:50:38.253Z,0.50
2022-08-05T09:53:08.743Z,0.75
2022-08-05T09:55:56.307Z,0.50
2022-08-05T09:58:29.190Z,0.50
2022-08-05T10:01:13.462Z,0.60
2022-08-05T10:03:58.783Z,0.65
2022-08-05T10:06:28.293Z,0.60
2022-08-05T10:08:56.880Z,0.73
2022-08-05T10:11:24.049Z,0.70
2022-08-05T10:14:26.668Z,0.80
2022-08-05T10:16:58.909Z,0.60
2022-08-05T10:20:03.296Z,0.65
2022-08-05T10:22:30.091Z,0.68
2022-08-05T10:24:58.492Z,0.60
2022-08-05T10:28:12.846Z,0.68
2022-08-05T10:31:44.035Z,0.60
2022-08-05T10:33:03.354Z,0.60
2022-08-05T10:35:33.841Z,1.52
2022-08-05T10:38:11.861Z,0.60
2022-08-05T10:40:47.518Z,0.52
2022-08-05T10:43:31.041Z,0.70
2022-08-05T10:46:08.526Z,0.70
2022-08-05T10:48:58.165Z,0.60
2022-08-05T10:51:57.746Z,0.60
2022-08-05T10:55:05.193Z,0.70
2022-08-05T10:57:33.734Z,0.70
2022-08-05T11:00:17.908Z,0.65
2022-08-05T11:03:25.806Z,0.80
2022-08-05T11:06:18.799Z,0.55
2022-08-05T11:09:17.506Z,0.60
2022-08-05T11:11:53.511Z,0.60
2022-08-05T11:18:07.342Z,0.80
2022-08-05T11:20:43.714Z,0.60
2022-08-05T11:23:33.487Z,0.65
2022-08-05T11:26:28.927Z,0.95
2022-08-05T11:29:06.879Z,0.70
2022-08-05T11:31:54.089Z,0.70
2022-08-05T11:34:51.709Z,1.20
2022-08-05T11:38:26.746Z,0.80
2022-08-05T11:41:13.967Z,1.00
2022-08-05T11:44:06.366Z,0.60
2022-08-05T11:46:58.583Z,0.60
2022-08-05T11:49:34.325Z,0.60
2022-08-05T11:52:11.641Z,1.10
2022-08-05T11:54:41.351Z,0.95
2022-08-05T11:57:24.966Z,0.50
2022-08-05T11:59:53.506Z,0.60
2022-08-05T12:02:30.081Z,0.52
2022-08-05T12:05:01.370Z,0.70
2022-08-05T12:08:08.132Z,0.70
2022-08-05T12:10:43.128Z,0.80
2022-08-05T12:13:27.687Z,0.90
2022-08-05T12:16:14.870Z,0.70
2022-08-05T12:18:52.170Z,0.90
2022-08-05T12:21:29.870Z,0.80
2022-08-05T12:24:05.107Z,0.82
2022-08-05T12:26:33.753Z,0.73
2022-08-05T12:29:03.262Z,0.70
2022-08-05T12:31:41.527Z,0.73
2022-08-05T12:34:37.363Z,0.90
2022-08-05T12:37:17.134Z,0.75
2022-08-05T12:39:51.793Z,0.70
2022-08-05T12:42:21.813Z,0.90
2022-08-05T12:44:52.779Z,0.95
2022-08-05T12:47:31.090Z,0.68
2022-08-05T12:50:04.815Z,0.90
2022-08-05T12:52:38.848Z,0.80
2022-08-05T12:55:25.075Z,1.05
2022-08-05T13:02:01.009Z,0.88
2022-08-05T13:03:42.289Z,1.00
2022-08-05T13:06:17.477Z,0.73
2022-08-05T13:08:52.245Z,0.90
2022-08-05T13:12:02.351Z,0.85
2022-08-05T13:14:35.909Z,0.90
2022-08-05T13:17:10.438Z,1.00
2022-08-05T13:19:50.893Z,0.90
2022-08-05T13:22:28.086Z,1.10
2022-08-05T13:25:05.610Z,10.10
2022-08-05T13:27:38.200Z,4.45
2022-08-05T13:30:34.570Z,1.17
2022-08-05T13:32:56.567Z,0.80
2022-08-05T13:35:43.130Z,1.13
2022-08-05T13:38:20.414Z,0.85
2022-08-05T13:40:58.543Z,0.75
2022-08-05T13:43:45.858Z,1.13
2022-08-05T13:46:14.324Z,0.95
2022-08-05T13:48:57.993Z,0.82
2022-08-05T13:51:40.276Z,0.80
2022-08-05T13:54:12.397Z,1.20
2022-08-05T13:56:51.505Z,0.90
2022-08-05T13:59:23.965Z,0.90
2022-08-05T14:02:00.395Z,1.30
2022-08-05T14:04:50.857Z,0.90
2022-08-05T14:07:25.874Z,0.90
2022-08-05T14:10:28.452Z,1.00
2022-08-05T14:12:57.453Z,1.05
2022-08-05T14:16:04.816Z,1.13
2022-08-05T14:18:18.727Z,0.90
2022-08-05T14:20:54.581Z,1.10
2022-08-05T14:23:25.532Z,1.00
2022-08-05T14:25:57.969Z,1.15
2022-08-05T14:28:30.749Z,0.90
2022-08-05T14:30:59.216Z,0.82
2022-08-05T14:33:26.468Z,1.15
2022-08-05T14:35:54.767Z,1.00
2022-08-05T14:38:32.146Z,1.10
2022-08-05T14:41:06.125Z,1.00
2022-08-05T14:43:53.936Z,1.15
2022-08-05T14:46:28.867Z,1.10
2022-08-05T14:49:08.048Z,1.13
2022-08-05T14:51:42.475Z,1.35
2022-08-05T14:54:28.242Z,1.20
2022-08-05T14:56:58.183Z,0.95
2022-08-05T14:59:29.578Z,1.27
2022-08-05T15:02:03.954Z,1.35
2022-08-05T15:04:43.344Z,1.30
2022-08-05T15:08:10.730Z,1.65
2022-08-05T15:10:01.332Z,0.95
2022-08-05T15:12:40.903Z,1.98
2022-08-05T15:15:16.360Z,1.17
2022-08-05T15:17:46.840Z,1.10
2022-08-05T15:20:19.367Z,1.25
2022-08-05T15:22:54.992Z,1.17
2022-08-05T15:25:51.406Z,0.93
2022-08-05T15:28:15.658Z,1.17
2022-08-05T15:30:45.601Z,0.90
2022-08-05T15:33:56.873Z,1.08
2022-08-05T15:36:05.865Z,1.08
2022-08-05T15:38:44.809Z,1.40
2022-08-05T15:41:22.464Z,1.20
2022-08-05T15:43:52.411Z,1.00
2022-08-05T15:46:24.354Z,1.02
2022-08-05T15:48:58.675Z,1.30
2022-08-05T15:52:04.158Z,1.25
2022-08-05T15:54:17.085Z,0.80
2022-08-05T15:56:44.262Z,1.40
2022-08-05T15:59:21.985Z,1.65
2022-08-05T16:01:53.747Z,1.20
2022-08-05T16:04:25.537Z,1.10
2022-08-05T16:06:55.529Z,1.13
2022-08-05T16:09:24.341Z,0.90
2022-08-05T16:11:53.766Z,1.27
2022-08-05T16:14:22.407Z,1.00
2022-08-05T16:16:49.756Z,1.20
2022-08-05T16:19:25.558Z,0.80
2022-08-05T16:22:05.231Z,1.00
2022-08-05T16:24:40.975Z,1.30
2022-08-05T16:27:10.122Z,1.20
2022-08-05T16:29:50.065Z,1.20
2022-08-05T16:32:18.327Z,1.17
2022-08-05T16:34:56.567Z,1.15
2022-08-05T16:38:03.118Z,1.27
2022-08-05T16:40:29.130Z,1.08
2022-08-05T16:42:57.286Z,1.15
2022-08-05T16:46:06.566Z,1.08
2022-08-05T16:48:25.299Z,1.05
2022-08-05T16:50:53.987Z,1.30
2022-08-05T16:53:22.827Z,1.17
2022-08-05T16:55:59.026Z,1.20
2022-08-05T16:58:26.854Z,1.27
2022-08-05T17:00:54.144Z,1.20
2022-08-05T17:03:22.148Z,1.20
2022-08-05T17:05:53.832Z,1.50
2022-08-05T17:08:36.473Z,1.50
2022-08-05T17:11:12.852Z,1.25
2022-08-05T17:13:45.300Z,1.00
2022-08-05T17:16:32.548Z,0.98
2022-08-05T17:19:00.149Z,1.00
2022-08-05T17:21:35.757Z,1.10
2022-08-05T17:24:28.435Z,1.25
2022-08-05T17:26:57.358Z,0.88
2022-08-05T17:29:33.665Z,1.10
2022-08-05T17:32:17.436Z,0.85
2022-08-05T17:34:48.185Z,1.13
2022-08-05T17:37:40.419Z,0.70
2022-08-05T17:40:12.186Z,0.88
2022-08-05T17:42:46.438Z,0.80
2022-08-05T17:45:21.899Z,0.80
2022-08-05T17:47:55.373Z,0.80
2022-08-05T17:50:29.497Z,0.90
2022-08-05T17:53:02.134Z,1.10
2022-08-05T17:55:38.044Z,0.75
2022-08-05T17:58:12.768Z,0.80
2022-08-05T18:00:45.283Z,0.85
2022-08-05T18:06:06.103Z,0.85
2022-08-05T18:08:44.987Z,0.80
2022-08-05T18:11:24.084Z,0.80
2022-08-05T18:13:57.081Z,1.00
2022-08-05T18:16:26.931Z,1.02
2022-08-05T18:18:54.147Z,1.00
2022-08-05T18:21:22.874Z,1.10
2022-08-05T18:24:05.459Z,0.97
2022-08-05T18:26:32.700Z,0.70
2022-08-05T18:29:00.251Z,0.90
2022-08-05T18:31:32.963Z,0.75
2022-08-05T18:34:06.062Z,0.80
2022-08-05T18:36:35.424Z,0.73
2022-08-05T18:39:09.664Z,0.90
2022-08-05T18:44:33.330Z,0.80
2022-08-05T18:47:03.990Z,0.85
2022-08-05T18:49:58.163Z,0.70
2022-08-05T18:52:36.122Z,0.80
2022-08-05T18:55:10.667Z,0.95
2022-08-05T19:00:29.068Z,0.70
2022-08-05T19:03:04.069Z,0.90
2022-08-05T19:06:12.600Z,1.15
2022-08-05T19:08:20.295Z,0.80
2022-08-05T19:10:50.118Z,0.85
2022-08-05T19:13:17.535Z,1.00
2022-08-05T19:15:45.180Z,0.98
2022-08-05T19:18:25.751Z,0.90
2022-08-05T19:20:52.946Z,1.00
2022-08-05T19:24:03.774Z,0.90
2022-08-05T19:26:09.263Z,1.02
2022-08-05T19:28:42.323Z,0.93
2022-08-05T19:31:13.447Z,1.08
2022-08-05T19:33:48.761Z,1.00
2022-08-05T19:36:26.769Z,0.95
2022-08-05T19:39:00.866Z,1.13
2022-08-05T19:41:58.137Z,0.80
2022-08-05T19:44:18.842Z,0.90
2022-08-05T19:46:46.447Z,0.90
2022-08-05T19:49:16.669Z,0.60
2022-08-05T19:52:05.890Z,1.20
2022-08-05T19:54:35.093Z,1.05
2022-08-05T19:57:07.638Z,0.90
2022-08-05T20:00:01.078Z,0.90
2022-08-05T20:02:30.441Z,0.80
2022-08-05T20:04:59.737Z,0.85
2022-08-05T20:07:47.122Z,0.80
2022-08-05T20:10:19.137Z,0.73
2022-08-05T20:12:49.330Z,0.80
2022-08-05T20:15:23.012Z,0.90
2022-08-05T20:18:10.989Z,1.10
2022-08-05T20:20:55.159Z,1.20
2022-08-05T20:23:22.653Z,1.02
2022-08-05T20:25:52.262Z,1.10
2022-08-05T20:28:21.305Z,1.13
2022-08-05T20:30:49.594Z,1.17
2022-08-05T20:33:17.997Z,1.08
2022-08-05T20:35:48.804Z,1.10
2022-08-05T20:38:26.724Z,0.90
2022-08-05T20:40:55.449Z,1.30
2022-08-05T20:43:57.892Z,1.08
2022-08-05T20:46:18.376Z,1.20
2022-08-05T20:48:52.178Z,1.17
2022-08-05T20:51:19.754Z,1.13
2022-08-05T20:53:56.389Z,1.10
2022-08-05T20:56:31.042Z,1.10
2022-08-05T20:59:11.354Z,1.20
2022-08-05T21:01:44.851Z,1.17
2022-08-05T21:04:12.173Z,1.15
2022-08-05T21:06:45.625Z,1.10
2022-08-05T21:09:15.206Z,1.38
2022-08-05T21:12:08.080Z,1.02
2022-08-05T21:14:34.809Z,1.10
2022-08-05T21:17:06.169Z,1.30
2022-08-05T21:19:47.250Z,1.48
2022-08-05T21:22:17.590Z,1.10
2022-08-05T21:24:48.963Z,1.10
2022-08-05T21:27:25.517Z,1.13
2022-08-05T21:29:56.507Z,1.70
2022-08-05T21:32:28.264Z,1.30
2022-08-05T21:35:17.668Z,1.42
2022-08-05T21:37:53.181Z,2.55
2022-08-05T21:40:23.283Z,2.70
2022-08-05T21:42:52.873Z,3.35
2022-08-05T21:45:51.875Z,3.45
2022-08-05T21:48:11.703Z,3.13
2022-08-05T21:50:42.202Z,3.42
2022-08-05T21:53:20.591Z,2.78
2022-08-05T21:56:06.162Z,2.50
2022-08-05T21:58:42.294Z,2.10
2022-08-05T22:01:24.195Z,2.15
2022-08-05T22:03:53.577Z,2.10
2022-08-05T22:06:35.506Z,1.85
2022-08-05T22:09:15.166Z,1.65
2022-08-05T22:11:48.168Z,1.60
2022-08-05T22:14:34.581Z,1.70
2022-08-05T22:17:05.026Z,1.60
2022-08-05T22:20:00.332Z,1.38
2022-08-05T22:22:27.933Z,1.42
2022-08-05T22:25:21.071Z,1.85
2022-08-05T22:28:11.184Z,1.20
2022-08-05T22:30:56.169Z,1.67
2022-08-05T22:33:55.604Z,1.42
2022-08-05T22:36:15.656Z,1.55
2022-08-05T22:38:48.656Z,1.38
2022-08-05T22:42:05.143Z,1.88
2022-08-05T22:44:05.691Z,1.25
2022-08-05T22:46:32.921Z,1.60
2022-08-05T22:49:00.194Z,1.27
2022-08-05T22:52:04.672Z,1.25
2022-08-05T22:54:14.744Z,1.40
2022-08-05T22:56:41.831Z,1.15
2022-08-05T22:59:46.370Z,1.17
2022-08-05T23:02:06.113Z,1.55
2022-08-05T23:04:35.708Z,1.40
2022-08-05T23:07:03.745Z,1.48
2022-08-05T23:09:53.418Z,1.50
2022-08-05T23:12:20.373Z,1.20
2022-08-05T23:14:51.482Z,1.30
2022-08-05T23:17:32.706Z,1.40
2022-08-05T23:20:10.527Z,1.58
2022-08-05T23:22:47.687Z,1.25
2022-08-05T23:25:51.552Z,1.15
2022-08-05T23:28:07.398Z,1.33
2022-08-05T23:30:40.381Z,1.30
2022-08-05T23:33:16.396Z,1.38
2022-08-05T23:35:55.066Z,1.40
2022-08-05T23:38:24.501Z,1.25
2022-08-05T23:40:52.818Z,1.23
2022-08-05T23:43:25.422Z,1.20
2022-08-05T23:46:20.382Z,1.23
2022-08-05T23:49:00.490Z,1.20
2022-08-05T23:51:55.475Z,1.25
2022-08-05T23:54:25.167Z,1.38
2022-08-05T23:56:55.470Z,1.45
2022-08-05T23:59:37.700Z,1.67
